<?xml version="1.0" encoding="UTF-8" standalone="no" ?>
<gpx xmlns="http://www.topografix.com/GPX/1/1" xmlns:xsi="http://www.w3.org/2001/XMLSchema-instance" xsi:schemaLocation="http://www.topografix.com/GPX/1/1 http://www.topografix.com/GPX/1/1/gpx.xsd" version="1.1" creator="VisuGPX - https://www.visugpx.com">
  <metadata>
    <name>Randonnee Saint-Julien-du-Sault - Le Dérube</name>
  </metadata>
  <wpt lat="48.03265" lon="3.29711">
    <ele>86.5</ele>
  </wpt>
  <wpt lat="48.03155" lon="3.29474">
    <ele>87.5</ele>
  </wpt>
  <wpt lat="48.02799" lon="3.29927">
    <ele>101.2</ele>
  </wpt>
  <wpt lat="48.02644" lon="3.29406">
    <ele>136.7</ele>
  </wpt>
  <wpt lat="48.02523" lon="3.29598">
    <ele>97.6</ele>
  </wpt>
  <wpt lat="48.01212" lon="3.26846">
    <ele>180.5</ele>
  </wpt>
  <wpt lat="48.01818" lon="3.27503">
    <ele>179.4</ele>
  </wpt>
  <wpt lat="48.02201" lon="3.27005">
    <ele>123.4</ele>
  </wpt>
  <trk>
    <name><![CDATA[Randonnee Saint-Julien-du-Sault - Le Dérube]]></name>
    <trkseg>
      <trkpt lat="48.03259" lon="3.29695">
        <ele>87</ele>
        <time>2017-06-29T15:55:48Z</time>
      </trkpt>
      <trkpt lat="48.03222" lon="3.29719">
        <ele>85</ele>
        <time>2017-06-29T15:57:48Z</time>
      </trkpt>
      <trkpt lat="48.03178" lon="3.29603">
        <ele>89</ele>
        <time>2017-06-29T15:59:48Z</time>
      </trkpt>
      <trkpt lat="48.03147" lon="3.29488">
        <ele>87</ele>
        <time>2017-06-29T16:01:48Z</time>
      </trkpt>
      <trkpt lat="48.03006" lon="3.29504">
        <ele>81</ele>
        <time>2017-06-29T16:03:48Z</time>
      </trkpt>
      <trkpt lat="48.02957" lon="3.29451">
        <ele>89</ele>
        <time>2017-06-29T16:05:48Z</time>
      </trkpt>
      <trkpt lat="48.02916" lon="3.29496">
        <ele>92</ele>
        <time>2017-06-29T16:07:48Z</time>
      </trkpt>
      <trkpt lat="48.02895" lon="3.29579">
        <ele>95</ele>
        <time>2017-06-29T16:09:48Z</time>
      </trkpt>
      <trkpt lat="48.02864" lon="3.29703">
        <ele>99</ele>
        <time>2017-06-29T16:11:48Z</time>
      </trkpt>
      <trkpt lat="48.02853" lon="3.29835">
        <ele>95</ele>
        <time>2017-06-29T16:13:48Z</time>
      </trkpt>
      <trkpt lat="48.02839" lon="3.29891">
        <ele>96</ele>
        <time>2017-06-29T16:15:48Z</time>
      </trkpt>
      <trkpt lat="48.02801" lon="3.29944">
        <ele>99</ele>
        <time>2017-06-29T16:17:48Z</time>
      </trkpt>
      <trkpt lat="48.02765" lon="3.29925">
        <ele>107</ele>
        <time>2017-06-29T16:19:48Z</time>
      </trkpt>
      <trkpt lat="48.02718" lon="3.29896">
        <ele>113</ele>
        <time>2017-06-29T16:21:48Z</time>
      </trkpt>
      <trkpt lat="48.02698" lon="3.29875">
        <ele>114</ele>
        <time>2017-06-29T16:23:48Z</time>
      </trkpt>
      <trkpt lat="48.02682" lon="3.29843">
        <ele>117</ele>
        <time>2017-06-29T16:25:48Z</time>
      </trkpt>
      <trkpt lat="48.02679" lon="3.29786">
        <ele>123</ele>
        <time>2017-06-29T16:27:48Z</time>
      </trkpt>
      <trkpt lat="48.02678" lon="3.29751">
        <ele>127</ele>
        <time>2017-06-29T16:29:48Z</time>
      </trkpt>
      <trkpt lat="48.02727" lon="3.29725">
        <ele>131</ele>
        <time>2017-06-29T16:31:48Z</time>
      </trkpt>
      <trkpt lat="48.02743" lon="3.29689">
        <ele>135</ele>
        <time>2017-06-29T16:33:48Z</time>
      </trkpt>
      <trkpt lat="48.02729" lon="3.29579">
        <ele>138</ele>
        <time>2017-06-29T16:35:48Z</time>
      </trkpt>
      <trkpt lat="48.02731" lon="3.29504">
        <ele>140</ele>
        <time>2017-06-29T16:37:48Z</time>
      </trkpt>
      <trkpt lat="48.02695" lon="3.29503">
        <ele>138</ele>
        <time>2017-06-29T16:39:48Z</time>
      </trkpt>
      <trkpt lat="48.02678" lon="3.29416">
        <ele>143</ele>
        <time>2017-06-29T16:41:48Z</time>
      </trkpt>
      <trkpt lat="48.02653" lon="3.29405">
        <ele>139</ele>
        <time>2017-06-29T16:43:48Z</time>
      </trkpt>
      <trkpt lat="48.02651" lon="3.29566">
        <ele>130</ele>
        <time>2017-06-29T16:45:48Z</time>
      </trkpt>
      <trkpt lat="48.02582" lon="3.29572">
        <ele>111</ele>
        <time>2017-06-29T16:47:48Z</time>
      </trkpt>
      <trkpt lat="48.02553" lon="3.29591">
        <ele>104</ele>
        <time>2017-06-29T16:49:48Z</time>
      </trkpt>
      <trkpt lat="48.02533" lon="3.29618">
        <ele>99</ele>
        <time>2017-06-29T16:51:48Z</time>
      </trkpt>
      <trkpt lat="48.02515" lon="3.29602">
        <ele>96</ele>
        <time>2017-06-29T16:53:48Z</time>
      </trkpt>
      <trkpt lat="48.02515" lon="3.29579">
        <ele>96</ele>
        <time>2017-06-29T16:55:48Z</time>
      </trkpt>
      <trkpt lat="48.02518" lon="3.29524">
        <ele>98</ele>
        <time>2017-06-29T16:57:48Z</time>
      </trkpt>
      <trkpt lat="48.02514" lon="3.29478">
        <ele>99</ele>
        <time>2017-06-29T16:59:48Z</time>
      </trkpt>
      <trkpt lat="48.02465" lon="3.29353">
        <ele>101</ele>
        <time>2017-06-29T17:01:48Z</time>
      </trkpt>
      <trkpt lat="48.02417" lon="3.29279">
        <ele>101</ele>
        <time>2017-06-29T17:03:48Z</time>
      </trkpt>
      <trkpt lat="48.02394" lon="3.29206">
        <ele>106</ele>
        <time>2017-06-29T17:05:48Z</time>
      </trkpt>
      <trkpt lat="48.02382" lon="3.29117">
        <ele>110</ele>
        <time>2017-06-29T17:07:48Z</time>
      </trkpt>
      <trkpt lat="48.02365" lon="3.29005">
        <ele>111</ele>
        <time>2017-06-29T17:09:48Z</time>
      </trkpt>
      <trkpt lat="48.0234" lon="3.289">
        <ele>112</ele>
        <time>2017-06-29T17:11:48Z</time>
      </trkpt>
      <trkpt lat="48.02318" lon="3.28794">
        <ele>118</ele>
        <time>2017-06-29T17:13:48Z</time>
      </trkpt>
      <trkpt lat="48.02296" lon="3.28757">
        <ele>119</ele>
        <time>2017-06-29T17:15:48Z</time>
      </trkpt>
      <trkpt lat="48.02179" lon="3.28584">
        <ele>128</ele>
        <time>2017-06-29T17:17:48Z</time>
      </trkpt>
      <trkpt lat="48.0216" lon="3.28532">
        <ele>126</ele>
        <time>2017-06-29T17:19:48Z</time>
      </trkpt>
      <trkpt lat="48.02128" lon="3.28424">
        <ele>129</ele>
        <time>2017-06-29T17:21:48Z</time>
      </trkpt>
      <trkpt lat="48.02101" lon="3.28367">
        <ele>130</ele>
        <time>2017-06-29T17:23:48Z</time>
      </trkpt>
      <trkpt lat="48.02069" lon="3.28321">
        <ele>133</ele>
        <time>2017-06-29T17:25:48Z</time>
      </trkpt>
      <trkpt lat="48.02042" lon="3.2829">
        <ele>139</ele>
        <time>2017-06-29T17:27:48Z</time>
      </trkpt>
      <trkpt lat="48.02005" lon="3.28266">
        <ele>142</ele>
        <time>2017-06-29T17:29:48Z</time>
      </trkpt>
      <trkpt lat="48.01969" lon="3.28244">
        <ele>142</ele>
        <time>2017-06-29T17:31:48Z</time>
      </trkpt>
      <trkpt lat="48.01931" lon="3.28209">
        <ele>142</ele>
        <time>2017-06-29T17:33:48Z</time>
      </trkpt>
      <trkpt lat="48.01907" lon="3.28194">
        <ele>143</ele>
        <time>2017-06-29T17:35:48Z</time>
      </trkpt>
      <trkpt lat="48.01856" lon="3.2818">
        <ele>148</ele>
        <time>2017-06-29T17:37:48Z</time>
      </trkpt>
      <trkpt lat="48.0181" lon="3.28155">
        <ele>152</ele>
        <time>2017-06-29T17:39:48Z</time>
      </trkpt>
      <trkpt lat="48.01767" lon="3.28118">
        <ele>154</ele>
        <time>2017-06-29T17:41:48Z</time>
      </trkpt>
      <trkpt lat="48.01732" lon="3.2808">
        <ele>155</ele>
        <time>2017-06-29T17:43:48Z</time>
      </trkpt>
      <trkpt lat="48.01669" lon="3.28005">
        <ele>154</ele>
        <time>2017-06-29T17:45:48Z</time>
      </trkpt>
      <trkpt lat="48.01601" lon="3.27925">
        <ele>158</ele>
        <time>2017-06-29T17:47:48Z</time>
      </trkpt>
      <trkpt lat="48.01587" lon="3.27903">
        <ele>159</ele>
        <time>2017-06-29T17:49:48Z</time>
      </trkpt>
      <trkpt lat="48.01543" lon="3.27879">
        <ele>161</ele>
        <time>2017-06-29T17:51:48Z</time>
      </trkpt>
      <trkpt lat="48.01493" lon="3.27838">
        <ele>161</ele>
        <time>2017-06-29T17:53:48Z</time>
      </trkpt>
      <trkpt lat="48.01455" lon="3.27809">
        <ele>163</ele>
        <time>2017-06-29T17:55:48Z</time>
      </trkpt>
      <trkpt lat="48.0142" lon="3.27768">
        <ele>164</ele>
        <time>2017-06-29T17:57:48Z</time>
      </trkpt>
      <trkpt lat="48.01376" lon="3.27672">
        <ele>170</ele>
        <time>2017-06-29T17:59:48Z</time>
      </trkpt>
      <trkpt lat="48.01275" lon="3.27442">
        <ele>171</ele>
        <time>2017-06-29T18:01:48Z</time>
      </trkpt>
      <trkpt lat="48.01198" lon="3.27281">
        <ele>173</ele>
        <time>2017-06-29T18:03:48Z</time>
      </trkpt>
      <trkpt lat="48.01155" lon="3.27172">
        <ele>175</ele>
        <time>2017-06-29T18:05:48Z</time>
      </trkpt>
      <trkpt lat="48.01139" lon="3.2711">
        <ele>176</ele>
        <time>2017-06-29T18:07:48Z</time>
      </trkpt>
      <trkpt lat="48.01131" lon="3.27024">
        <ele>178</ele>
        <time>2017-06-29T18:09:48Z</time>
      </trkpt>
      <trkpt lat="48.01132" lon="3.26954">
        <ele>179</ele>
        <time>2017-06-29T18:11:48Z</time>
      </trkpt>
      <trkpt lat="48.01136" lon="3.26922">
        <ele>180</ele>
        <time>2017-06-29T18:13:48Z</time>
      </trkpt>
      <trkpt lat="48.0115" lon="3.26897">
        <ele>180</ele>
        <time>2017-06-29T18:15:48Z</time>
      </trkpt>
      <trkpt lat="48.01167" lon="3.26874">
        <ele>180</ele>
        <time>2017-06-29T18:17:48Z</time>
      </trkpt>
      <trkpt lat="48.01193" lon="3.26846">
        <ele>180</ele>
        <time>2017-06-29T18:19:48Z</time>
      </trkpt>
      <trkpt lat="48.01218" lon="3.26875">
        <ele>180</ele>
        <time>2017-06-29T18:21:48Z</time>
      </trkpt>
      <trkpt lat="48.01253" lon="3.26921">
        <ele>180</ele>
        <time>2017-06-29T18:23:48Z</time>
      </trkpt>
      <trkpt lat="48.01295" lon="3.26962">
        <ele>181</ele>
        <time>2017-06-29T18:25:48Z</time>
      </trkpt>
      <trkpt lat="48.01342" lon="3.27006">
        <ele>182</ele>
        <time>2017-06-29T18:27:48Z</time>
      </trkpt>
      <trkpt lat="48.01398" lon="3.27066">
        <ele>182</ele>
        <time>2017-06-29T18:29:48Z</time>
      </trkpt>
      <trkpt lat="48.01434" lon="3.27085">
        <ele>181</ele>
        <time>2017-06-29T18:31:48Z</time>
      </trkpt>
      <trkpt lat="48.01465" lon="3.27109">
        <ele>181</ele>
        <time>2017-06-29T18:33:48Z</time>
      </trkpt>
      <trkpt lat="48.01505" lon="3.27151">
        <ele>181</ele>
        <time>2017-06-29T18:35:48Z</time>
      </trkpt>
      <trkpt lat="48.01618" lon="3.27277">
        <ele>180</ele>
        <time>2017-06-29T18:37:48Z</time>
      </trkpt>
      <trkpt lat="48.01668" lon="3.27337">
        <ele>180</ele>
        <time>2017-06-29T18:39:48Z</time>
      </trkpt>
      <trkpt lat="48.01731" lon="3.27398">
        <ele>178</ele>
        <time>2017-06-29T18:41:48Z</time>
      </trkpt>
      <trkpt lat="48.01756" lon="3.27427">
        <ele>178</ele>
        <time>2017-06-29T18:43:48Z</time>
      </trkpt>
      <trkpt lat="48.01783" lon="3.2749">
        <ele>178</ele>
        <time>2017-06-29T18:45:48Z</time>
      </trkpt>
      <trkpt lat="48.01804" lon="3.27535">
        <ele>178</ele>
        <time>2017-06-29T18:47:48Z</time>
      </trkpt>
      <trkpt lat="48.01869" lon="3.27468">
        <ele>181</ele>
        <time>2017-06-29T18:49:48Z</time>
      </trkpt>
      <trkpt lat="48.019" lon="3.2742">
        <ele>181</ele>
        <time>2017-06-29T18:51:48Z</time>
      </trkpt>
      <trkpt lat="48.01875" lon="3.27384">
        <ele>180</ele>
        <time>2017-06-29T18:53:48Z</time>
      </trkpt>
      <trkpt lat="48.01856" lon="3.27332">
        <ele>178</ele>
        <time>2017-06-29T18:55:48Z</time>
      </trkpt>
      <trkpt lat="48.01838" lon="3.27269">
        <ele>177</ele>
        <time>2017-06-29T18:57:48Z</time>
      </trkpt>
      <trkpt lat="48.01816" lon="3.27214">
        <ele>176</ele>
        <time>2017-06-29T18:59:48Z</time>
      </trkpt>
      <trkpt lat="48.01793" lon="3.27163">
        <ele>175</ele>
        <time>2017-06-29T19:01:48Z</time>
      </trkpt>
      <trkpt lat="48.01766" lon="3.27111">
        <ele>175</ele>
        <time>2017-06-29T19:03:48Z</time>
      </trkpt>
      <trkpt lat="48.01748" lon="3.27065">
        <ele>175</ele>
        <time>2017-06-29T19:05:48Z</time>
      </trkpt>
      <trkpt lat="48.01726" lon="3.26989">
        <ele>178</ele>
        <time>2017-06-29T19:07:48Z</time>
      </trkpt>
      <trkpt lat="48.01774" lon="3.27">
        <ele>173</ele>
        <time>2017-06-29T19:09:48Z</time>
      </trkpt>
      <trkpt lat="48.01796" lon="3.27007">
        <ele>171</ele>
        <time>2017-06-29T19:11:48Z</time>
      </trkpt>
      <trkpt lat="48.01809" lon="3.27021">
        <ele>170</ele>
        <time>2017-06-29T19:13:48Z</time>
      </trkpt>
      <trkpt lat="48.01866" lon="3.27019">
        <ele>164</ele>
        <time>2017-06-29T19:15:48Z</time>
      </trkpt>
      <trkpt lat="48.01892" lon="3.27011">
        <ele>162</ele>
        <time>2017-06-29T19:17:48Z</time>
      </trkpt>
      <trkpt lat="48.01944" lon="3.27015">
        <ele>158</ele>
        <time>2017-06-29T19:19:48Z</time>
      </trkpt>
      <trkpt lat="48.01991" lon="3.26994">
        <ele>154</ele>
        <time>2017-06-29T19:21:48Z</time>
      </trkpt>
      <trkpt lat="48.02054" lon="3.26988">
        <ele>147</ele>
        <time>2017-06-29T19:23:48Z</time>
      </trkpt>
      <trkpt lat="48.02111" lon="3.27025">
        <ele>140</ele>
        <time>2017-06-29T19:25:48Z</time>
      </trkpt>
      <trkpt lat="48.02191" lon="3.27011">
        <ele>126</ele>
        <time>2017-06-29T19:27:48Z</time>
      </trkpt>
      <trkpt lat="48.02199" lon="3.27128">
        <ele>135</ele>
        <time>2017-06-29T19:29:48Z</time>
      </trkpt>
      <trkpt lat="48.02177" lon="3.27165">
        <ele>144</ele>
        <time>2017-06-29T19:31:48Z</time>
      </trkpt>
      <trkpt lat="48.02165" lon="3.27277">
        <ele>154</ele>
        <time>2017-06-29T19:33:48Z</time>
      </trkpt>
      <trkpt lat="48.02239" lon="3.27276">
        <ele>140</ele>
        <time>2017-06-29T19:35:48Z</time>
      </trkpt>
      <trkpt lat="48.02257" lon="3.27277">
        <ele>137</ele>
        <time>2017-06-29T19:37:48Z</time>
      </trkpt>
      <trkpt lat="48.02273" lon="3.27284">
        <ele>134</ele>
        <time>2017-06-29T19:39:48Z</time>
      </trkpt>
      <trkpt lat="48.02289" lon="3.27301">
        <ele>133</ele>
        <time>2017-06-29T19:41:48Z</time>
      </trkpt>
      <trkpt lat="48.02296" lon="3.27323">
        <ele>134</ele>
        <time>2017-06-29T19:43:48Z</time>
      </trkpt>
      <trkpt lat="48.02315" lon="3.27367">
        <ele>134</ele>
        <time>2017-06-29T19:45:48Z</time>
      </trkpt>
      <trkpt lat="48.02318" lon="3.2741">
        <ele>137</ele>
        <time>2017-06-29T19:47:48Z</time>
      </trkpt>
      <trkpt lat="48.02319" lon="3.27456">
        <ele>138</ele>
        <time>2017-06-29T19:49:48Z</time>
      </trkpt>
      <trkpt lat="48.02321" lon="3.27501">
        <ele>139</ele>
        <time>2017-06-29T19:51:48Z</time>
      </trkpt>
      <trkpt lat="48.02324" lon="3.27543">
        <ele>138</ele>
        <time>2017-06-29T19:53:48Z</time>
      </trkpt>
      <trkpt lat="48.02329" lon="3.27591">
        <ele>137</ele>
        <time>2017-06-29T19:55:48Z</time>
      </trkpt>
      <trkpt lat="48.02348" lon="3.27664">
        <ele>137</ele>
        <time>2017-06-29T19:57:48Z</time>
      </trkpt>
      <trkpt lat="48.02365" lon="3.27701">
        <ele>133</ele>
        <time>2017-06-29T19:59:48Z</time>
      </trkpt>
      <trkpt lat="48.02377" lon="3.2776">
        <ele>133</ele>
        <time>2017-06-29T20:01:48Z</time>
      </trkpt>
      <trkpt lat="48.024" lon="3.27827">
        <ele>131</ele>
        <time>2017-06-29T20:03:48Z</time>
      </trkpt>
      <trkpt lat="48.02373" lon="3.27998">
        <ele>145</ele>
        <time>2017-06-29T20:05:48Z</time>
      </trkpt>
      <trkpt lat="48.02383" lon="3.28068">
        <ele>145</ele>
        <time>2017-06-29T20:07:48Z</time>
      </trkpt>
      <trkpt lat="48.0238" lon="3.28187">
        <ele>156</ele>
        <time>2017-06-29T20:09:48Z</time>
      </trkpt>
      <trkpt lat="48.02441" lon="3.28222">
        <ele>147</ele>
        <time>2017-06-29T20:11:48Z</time>
      </trkpt>
      <trkpt lat="48.02487" lon="3.28233">
        <ele>139</ele>
        <time>2017-06-29T20:13:48Z</time>
      </trkpt>
      <trkpt lat="48.02504" lon="3.2825">
        <ele>136</ele>
        <time>2017-06-29T20:15:48Z</time>
      </trkpt>
      <trkpt lat="48.02504" lon="3.28322">
        <ele>140</ele>
        <time>2017-06-29T20:17:48Z</time>
      </trkpt>
      <trkpt lat="48.02507" lon="3.28354">
        <ele>141</ele>
        <time>2017-06-29T20:19:48Z</time>
      </trkpt>
      <trkpt lat="48.02538" lon="3.28416">
        <ele>138</ele>
        <time>2017-06-29T20:21:48Z</time>
      </trkpt>
      <trkpt lat="48.02541" lon="3.28482">
        <ele>143</ele>
        <time>2017-06-29T20:23:48Z</time>
      </trkpt>
      <trkpt lat="48.02552" lon="3.28527">
        <ele>145</ele>
        <time>2017-06-29T20:25:48Z</time>
      </trkpt>
      <trkpt lat="48.02574" lon="3.28593">
        <ele>145</ele>
        <time>2017-06-29T20:27:48Z</time>
      </trkpt>
      <trkpt lat="48.0258" lon="3.28657">
        <ele>144</ele>
        <time>2017-06-29T20:29:48Z</time>
      </trkpt>
      <trkpt lat="48.02592" lon="3.28697">
        <ele>142</ele>
        <time>2017-06-29T20:31:48Z</time>
      </trkpt>
      <trkpt lat="48.02606" lon="3.28743">
        <ele>140</ele>
        <time>2017-06-29T20:33:48Z</time>
      </trkpt>
      <trkpt lat="48.02611" lon="3.28778">
        <ele>141</ele>
        <time>2017-06-29T20:35:48Z</time>
      </trkpt>
      <trkpt lat="48.02639" lon="3.28829">
        <ele>141</ele>
        <time>2017-06-29T20:37:48Z</time>
      </trkpt>
      <trkpt lat="48.02662" lon="3.28861">
        <ele>140</ele>
        <time>2017-06-29T20:39:48Z</time>
      </trkpt>
      <trkpt lat="48.02659" lon="3.28893">
        <ele>142</ele>
        <time>2017-06-29T20:41:48Z</time>
      </trkpt>
      <trkpt lat="48.02655" lon="3.28928">
        <ele>143</ele>
        <time>2017-06-29T20:43:48Z</time>
      </trkpt>
      <trkpt lat="48.02642" lon="3.28968">
        <ele>143</ele>
        <time>2017-06-29T20:45:48Z</time>
      </trkpt>
      <trkpt lat="48.02611" lon="3.28991">
        <ele>145</ele>
        <time>2017-06-29T20:47:48Z</time>
      </trkpt>
      <trkpt lat="48.02599" lon="3.29006">
        <ele>146</ele>
        <time>2017-06-29T20:49:48Z</time>
      </trkpt>
      <trkpt lat="48.026" lon="3.29037">
        <ele>145</ele>
        <time>2017-06-29T20:51:48Z</time>
      </trkpt>
      <trkpt lat="48.02614" lon="3.29098">
        <ele>143</ele>
        <time>2017-06-29T20:53:48Z</time>
      </trkpt>
      <trkpt lat="48.02647" lon="3.29201">
        <ele>141</ele>
        <time>2017-06-29T20:55:48Z</time>
      </trkpt>
      <trkpt lat="48.02674" lon="3.29238">
        <ele>142</ele>
        <time>2017-06-29T20:57:48Z</time>
      </trkpt>
      <trkpt lat="48.02688" lon="3.29264">
        <ele>141</ele>
        <time>2017-06-29T20:59:48Z</time>
      </trkpt>
      <trkpt lat="48.02713" lon="3.29267">
        <ele>140</ele>
        <time>2017-06-29T21:01:48Z</time>
      </trkpt>
      <trkpt lat="48.0274" lon="3.29256">
        <ele>137</ele>
        <time>2017-06-29T21:03:48Z</time>
      </trkpt>
      <trkpt lat="48.02766" lon="3.29245">
        <ele>132</ele>
        <time>2017-06-29T21:05:48Z</time>
      </trkpt>
      <trkpt lat="48.02793" lon="3.29247">
        <ele>126</ele>
        <time>2017-06-29T21:07:48Z</time>
      </trkpt>
      <trkpt lat="48.02825" lon="3.29254">
        <ele>119</ele>
        <time>2017-06-29T21:09:48Z</time>
      </trkpt>
      <trkpt lat="48.02854" lon="3.29263">
        <ele>111</ele>
        <time>2017-06-29T21:11:48Z</time>
      </trkpt>
      <trkpt lat="48.02887" lon="3.29292">
        <ele>103</ele>
        <time>2017-06-29T21:13:48Z</time>
      </trkpt>
      <trkpt lat="48.02909" lon="3.29311">
        <ele>98</ele>
        <time>2017-06-29T21:15:48Z</time>
      </trkpt>
      <trkpt lat="48.02919" lon="3.29336">
        <ele>97</ele>
        <time>2017-06-29T21:17:48Z</time>
      </trkpt>
      <trkpt lat="48.02949" lon="3.29387">
        <ele>92</ele>
        <time>2017-06-29T21:19:48Z</time>
      </trkpt>
      <trkpt lat="48.02952" lon="3.29319">
        <ele>92</ele>
        <time>2017-06-29T21:21:48Z</time>
      </trkpt>
      <trkpt lat="48.02978" lon="3.29314">
        <ele>88</ele>
        <time>2017-06-29T21:23:48Z</time>
      </trkpt>
      <trkpt lat="48.03007" lon="3.29295">
        <ele>85</ele>
        <time>2017-06-29T21:25:48Z</time>
      </trkpt>
      <trkpt lat="48.03071" lon="3.29314">
        <ele>85</ele>
        <time>2017-06-29T21:27:48Z</time>
      </trkpt>
      <trkpt lat="48.03087" lon="3.29345">
        <ele>85</ele>
        <time>2017-06-29T21:29:48Z</time>
      </trkpt>
      <trkpt lat="48.0309" lon="3.29387">
        <ele>85</ele>
        <time>2017-06-29T21:31:48Z</time>
      </trkpt>
      <trkpt lat="48.03136" lon="3.29416">
        <ele>87</ele>
        <time>2017-06-29T21:33:48Z</time>
      </trkpt>
      <trkpt lat="48.03155" lon="3.29515">
        <ele>88</ele>
        <time>2017-06-29T21:35:48Z</time>
      </trkpt>
      <trkpt lat="48.03221" lon="3.29727">
        <ele>85</ele>
        <time>2017-06-29T21:37:48Z</time>
      </trkpt>
      <trkpt lat="48.03257" lon="3.29693">
        <ele>87</ele>
        <time>2017-06-29T21:39:48Z</time>
      </trkpt>
      <trkpt lat="48.03259" lon="3.29693">
        <ele>87</ele>
        <time>2017-06-29T21:41:48Z</time>
      </trkpt>
    </trkseg>
  </trk>
</gpx>